createdAt,value
2022-08-03T00:01:29.351Z,98772.20
2022-08-03T00:08:32.221Z,98767.40
2022-08-03T00:15:39.667Z,98763.60
2022-08-03T00:22:41.646Z,98759.40
2022-08-03T00:29:57.604Z,98761.20
2022-08-03T00:37:03.473Z,98760.20
2022-08-03T00:44:15.915Z,98760.80
2022-08-03T00:51:19.176Z,98764.20
2022-08-03T00:58:22.703Z,98770.40
2022-08-03T01:05:08.400Z,98765.60
2022-08-03T01:12:04.211Z,98767.60
2022-08-03T01:18:21.103Z,98774.40
2022-08-03T01:24:55.680Z,98771.60
2022-08-03T01:31:09.861Z,98764.00
2022-08-03T01:37:49.108Z,98764.20
2022-08-03T01:44:28.057Z,98770.00
2022-08-03T01:50:38.734Z,98769.60
2022-08-03T01:56:49.159Z,98765.80
2022-08-03T02:03:09.192Z,98753.80
2022-08-03T02:09:36.755Z,98746.40
2022-08-03T02:15:53.372Z,98750.60
2022-08-03T02:22:13.621Z,98748.60
2022-08-03T02:28:50.901Z,98756.20
2022-08-03T02:34:58.886Z,98752.40
2022-08-03T02:41:23.246Z,98743.20
2022-08-03T02:47:53.329Z,98742.80
2022-08-03T02:54:14.850Z,98744.60
2022-08-03T03:00:27.418Z,98741.00
2022-08-03T03:06:33.468Z,98750.20
2022-08-03T03:12:47.450Z,98754.80
2022-08-03T03:18:58.018Z,98756.20
2022-08-03T03:25:15.574Z,98764.20
2022-08-03T03:31:22.865Z,98765.40
2022-08-03T03:37:19.413Z,98770.20
2022-08-03T03:43:33.387Z,98772.80
2022-08-03T03:49:43.961Z,98775.00
2022-08-03T03:55:36.867Z,98770.20
2022-08-03T04:02:18.473Z,98771.60
2022-08-03T04:08:45.825Z,98783.40
2022-08-03T04:14:58.670Z,98785.40
2022-08-03T04:21:12.022Z,98788.60
2022-08-03T04:27:39.956Z,98791.60
2022-08-03T04:33:51.298Z,98795.80
2022-08-03T04:39:47.567Z,98801.20
2022-08-03T04:46:13.719Z,98800.00
2022-08-03T04:52:21.632Z,98804.60
2022-08-03T04:58:29.197Z,98803.40
2022-08-03T05:04:38.200Z,98799.60
2022-08-03T05:10:50.398Z,98802.80
2022-08-03T05:16:50.963Z,98804.60
2022-08-03T05:23:08.927Z,98806.00
2022-08-03T05:29:27.820Z,98803.60
2022-08-03T05:35:57.187Z,98805.40
2022-08-03T05:41:53.438Z,98808.80
2022-08-03T05:48:56.699Z,98807.80
2022-08-03T05:56:03.674Z,98807.00
2022-08-03T06:02:38.000Z,98812.80
2022-08-03T06:09:20.714Z,98808.40
2022-08-03T06:16:16.474Z,98820.80
2022-08-03T06:23:18.748Z,98820.40
2022-08-03T06:30:21.839Z,98822.40
2022-08-03T06:36:42.633Z,98837.20
2022-08-03T06:42:22.990Z,98832.80
2022-08-03T06:48:05.816Z,98837.20
2022-08-03T06:53:27.808Z,98838.60
2022-08-03T06:59:09.800Z,98840.80
2022-08-03T07:04:57.244Z,98837.20
2022-08-03T07:10:21.973Z,98840.20
2022-08-03T07:16:00.548Z,98836.00
2022-08-03T07:21:44.760Z,98831.60
2022-08-03T07:27:29.714Z,98834.60
2022-08-03T07:33:08.356Z,98829.80
2022-08-03T07:38:39.314Z,98831.60
2022-08-03T07:44:18.256Z,98837.40
2022-08-03T07:49:52.527Z,98832.20
2022-08-03T07:55:36.349Z,98836.60
2022-08-03T08:01:14.881Z,98839.00
2022-08-03T08:07:11.721Z,98838.20
2022-08-03T08:12:50.028Z,98839.20
2022-08-03T08:18:20.815Z,98840.80
2022-08-03T08:23:53.732Z,98844.40
2022-08-03T08:29:32.123Z,98840.00
2022-08-03T08:36:12.012Z,98844.60
2022-08-03T08:42:00.151Z,98846.40
2022-08-03T08:48:27.246Z,98847.40
2022-08-03T08:54:15.235Z,98844.00
2022-08-03T08:59:56.995Z,98845.00
2022-08-03T09:06:21.187Z,98847.40
2022-08-03T09:12:42.470Z,98847.60
2022-08-03T09:18:32.487Z,98844.80
2022-08-03T09:24:41.623Z,98835.80
2022-08-03T09:30:33.471Z,98830.80
2022-08-03T09:37:01.536Z,98825.40
2022-08-03T09:42:27.922Z,98826.60
2022-08-03T09:49:02.694Z,98828.00
2022-08-03T09:54:56.099Z,98829.40
2022-08-03T10:00:22.648Z,98831.00
2022-08-03T10:05:59.752Z,98834.40
2022-08-03T10:11:42.660Z,98829.20
2022-08-03T10:17:10.509Z,98826.80
2022-08-03T10:22:50.304Z,98819.40
2022-08-03T10:28:35.726Z,98823.00
2022-08-03T10:34:24.322Z,98818.40
2022-08-03T10:39:56.674Z,98817.80
2022-08-03T10:45:40.050Z,98820.80
2022-08-03T10:51:07.226Z,98821.40
2022-08-03T10:56:55.521Z,98816.20
2022-08-03T11:02:23.200Z,98809.80
2022-08-03T11:07:45.514Z,98804.40
2022-08-03T11:13:33.906Z,98801.60
2022-08-03T11:19:16.857Z,98798.20
2022-08-03T11:24:47.320Z,98794.60
2022-08-03T11:30:30.023Z,98795.20
2022-08-03T11:36:32.419Z,98786.80
2022-08-03T11:41:57.730Z,98782.60
2022-08-03T11:47:22.860Z,98783.00
2022-08-03T11:52:50.194Z,98775.40
2022-08-03T11:59:10.730Z,98767.60
2022-08-03T12:04:08.198Z,98765.00
2022-08-03T12:09:30.059Z,98765.00
2022-08-03T12:14:58.985Z,98760.80
2022-08-03T12:20:31.412Z,98761.00
2022-08-03T12:26:10.807Z,98759.40
2022-08-03T12:31:36.422Z,98750.40
2022-08-03T12:37:45.926Z,98752.40
2022-08-03T12:44:00.595Z,98750.00
2022-08-03T12:50:43.631Z,98750.20
2022-08-03T12:56:10.446Z,98750.20
2022-08-03T13:01:55.116Z,98746.20
2022-08-03T13:07:31.692Z,98744.20
2022-08-03T13:12:53.865Z,98742.80
2022-08-03T13:18:19.199Z,98741.20
2022-08-03T13:23:42.821Z,98745.20
2022-08-03T13:29:07.991Z,98744.80
2022-08-03T13:34:46.269Z,98738.20
2022-08-03T13:40:14.747Z,98732.20
2022-08-03T13:46:15.422Z,98734.80
2022-08-03T13:51:42.841Z,98737.40
2022-08-03T13:58:12.472Z,98736.80
2022-08-03T14:03:35.239Z,98727.80
2022-08-03T14:09:00.564Z,98725.00
2022-08-03T14:14:23.249Z,98722.60
2022-08-03T14:19:52.745Z,98718.80
2022-08-03T14:25:16.848Z,98722.80
2022-08-03T14:30:41.851Z,98718.40
2022-08-03T14:36:05.277Z,98710.20
2022-08-03T14:41:28.040Z,98711.00
2022-08-03T14:46:50.757Z,98710.80
2022-08-03T14:52:12.977Z,98708.40
2022-08-03T14:57:35.322Z,98701.40
2022-08-03T15:02:58.423Z,98704.20
2022-08-03T15:08:26.839Z,98696.00
2022-08-03T15:13:51.562Z,98697.00
2022-08-03T15:20:02.036Z,98701.00
2022-08-03T15:24:56.466Z,98697.80
2022-08-03T15:30:18.797Z,98682.60
2022-08-03T15:35:41.763Z,98683.80
2022-08-03T15:41:05.729Z,98679.40
2022-08-03T15:46:36.112Z,98680.40
2022-08-03T15:51:58.315Z,98677.80
2022-08-03T15:57:21.666Z,98672.60
2022-08-03T16:02:46.283Z,98676.00
2022-08-03T16:08:18.094Z,98672.00
2022-08-03T16:14:11.960Z,98664.20
2022-08-03T16:19:24.633Z,98661.40
2022-08-03T16:24:46.965Z,98650.80
2022-08-03T16:30:11.996Z,98649.00
2022-08-03T16:35:34.050Z,98640.20
2022-08-03T16:40:56.578Z,98642.40
2022-08-03T16:46:21.534Z,98643.00
2022-08-03T16:52:26.087Z,98645.80
2022-08-03T16:57:58.440Z,98651.00
2022-08-03T17:03:24.346Z,98653.80
2022-08-03T17:08:55.162Z,98655.60
2022-08-03T17:14:22.830Z,98655.60
2022-08-03T17:19:57.723Z,98653.60
2022-08-03T17:26:13.680Z,98658.00
2022-08-03T17:32:10.123Z,98660.40
2022-08-03T17:37:57.454Z,98665.40
2022-08-03T17:44:14.474Z,98673.40
2022-08-03T17:48:59.517Z,98677.20
2022-08-03T17:54:35.053Z,98679.60
2022-08-03T18:00:42.701Z,98684.40
2022-08-03T18:06:11.789Z,98681.60
2022-08-03T18:11:45.848Z,98686.40
2022-08-03T18:17:24.516Z,98690.40
2022-08-03T18:23:36.213Z,98685.40
2022-08-03T18:30:16.286Z,98692.00
2022-08-03T18:36:41.639Z,98692.00
2022-08-03T18:43:47.644Z,98695.60
2022-08-03T18:51:28.595Z,98707.20
2022-08-03T18:58:15.806Z,98718.60
2022-08-03T19:05:19.719Z,98721.40
2022-08-03T19:12:28.195Z,98730.40
2022-08-03T19:19:26.934Z,98737.00
2022-08-03T19:33:57.506Z,98734.60
2022-08-03T19:40:51.117Z,98738.40
2022-08-03T19:47:27.659Z,98731.20
2022-08-03T19:54:14.584Z,98732.80
2022-08-03T20:00:50.545Z,98727.20
2022-08-03T20:07:22.622Z,98725.80
2022-08-03T20:14:20.751Z,98731.20
2022-08-03T20:21:18.643Z,98733.80
2022-08-03T20:28:26.826Z,98734.00
2022-08-03T20:34:53.229Z,98721.60
2022-08-03T20:41:59.312Z,98726.20
2022-08-03T20:48:54.770Z,98730.40
2022-08-03T21:03:03.642Z,98729.60
2022-08-03T21:10:09.962Z,98729.60
2022-08-03T21:13:10.601Z,98732.60
2022-08-03T21:13:12.190Z,98727.40
2022-08-03T21:16:54.292Z,98731.40
2022-08-03T21:23:40.258Z,98733.20
2022-08-03T21:30:51.710Z,98732.60
2022-08-03T21:37:33.517Z,98735.00
2022-08-03T21:44:08.846Z,98736.40
2022-08-03T21:51:11.869Z,98739.80
2022-08-03T21:57:32.273Z,98741.20
2022-08-03T22:04:55.635Z,98744.20
2022-08-03T22:11:47.142Z,98743.40
2022-08-03T22:18:41.369Z,98739.20
2022-08-03T22:25:31.179Z,98741.00
2022-08-03T22:32:26.800Z,98742.60
2022-08-03T22:39:28.574Z,98739.20
2022-08-03T22:46:15.675Z,98737.40
2022-08-03T22:53:21.632Z,98738.60
2022-08-03T23:00:24.761Z,98737.40
2022-08-03T23:07:27.656Z,98740.60
2022-08-03T23:14:22.685Z,98736.00
2022-08-03T23:21:53.644Z,98726.20
2022-08-03T23:28:48.954Z,98721.40
2022-08-03T23:36:20.133Z,98719.80
2022-08-03T23:43:15.518Z,98720.40
2022-08-03T23:49:55.796Z,98711.80
2022-08-03T23:56:27.808Z,98709.00
